createdAt,value
2018-08-16T00:00:27.806Z,1.00
2018-08-16T00:03:31.773Z,0.80
2018-08-16T00:06:35.687Z,0.80
2018-08-16T00:09:39.580Z,0.90
2018-08-16T00:12:45.099Z,0.87
2018-08-16T00:15:49.018Z,1.23
2018-08-16T00:18:52.950Z,0.80
2018-08-16T00:21:57.132Z,1.23
2018-08-16T00:25:01.058Z,1.00
2018-08-16T00:28:05.127Z,1.00
2018-08-16T00:31:09.379Z,0.90
2018-08-16T00:34:13.321Z,1.43
2018-08-16T00:37:17.315Z,0.87
2018-08-16T00:40:21.560Z,1.20
2018-08-16T00:43:25.665Z,1.33
2018-08-16T00:46:29.574Z,0.80
2018-08-16T00:49:33.506Z,0.90
2018-08-16T00:52:37.740Z,1.20
2018-08-16T00:55:41.865Z,0.80
2018-08-16T00:58:46.097Z,0.90
2018-08-16T01:01:50.001Z,1.23
2018-08-16T01:04:53.914Z,1.10
2018-08-16T01:07:58.047Z,1.00
2018-08-16T01:11:02.302Z,1.70
2018-08-16T01:14:06.926Z,1.33
2018-08-16T01:17:10.820Z,1.20
2018-08-16T01:20:14.792Z,1.20
2018-08-16T01:23:19.185Z,1.27
2018-08-16T01:26:23.077Z,1.23
2018-08-16T01:29:27.307Z,1.83
2018-08-16T01:32:31.205Z,1.03
2018-08-16T01:35:35.215Z,1.43
2018-08-16T01:38:39.307Z,1.40
2018-08-16T01:41:43.510Z,0.83
2018-08-16T01:44:47.408Z,1.00
2018-08-16T01:47:51.572Z,1.03
2018-08-16T01:50:55.811Z,0.77
2018-08-16T01:53:59.710Z,1.33
2018-08-16T01:57:03.964Z,1.40
2018-08-16T02:00:09.494Z,1.37
2018-08-16T02:03:13.401Z,1.00
2018-08-16T02:06:17.745Z,1.00
2018-08-16T02:09:22.376Z,1.37
2018-08-16T02:12:26.261Z,1.10
2018-08-16T02:15:30.720Z,1.03
2018-08-16T02:18:34.633Z,0.97
2018-08-16T02:21:38.876Z,1.03
2018-08-16T02:24:42.775Z,0.83
2018-08-16T02:27:46.694Z,1.40
2018-08-16T02:30:50.589Z,0.97
2018-08-16T02:33:55.428Z,1.43
2018-08-16T02:36:59.561Z,0.73
2018-08-16T02:40:04.152Z,0.97
2018-08-16T02:43:08.254Z,1.17
2018-08-16T02:46:12.490Z,1.27
2018-08-16T02:49:16.380Z,1.10
2018-08-16T02:52:20.302Z,1.13
2018-08-16T02:55:24.538Z,0.90
2018-08-16T02:58:28.452Z,1.13
2018-08-16T03:01:32.381Z,0.80
2018-08-16T03:04:36.548Z,1.33
2018-08-16T03:07:40.426Z,0.87
2018-08-16T03:10:44.330Z,1.30
2018-08-16T03:13:48.232Z,0.97
2018-08-16T03:16:52.142Z,1.27
2018-08-16T03:19:56.241Z,1.50
2018-08-16T03:23:00.131Z,0.90
2018-08-16T03:26:04.356Z,0.90
2018-08-16T03:29:08.261Z,1.33
2018-08-16T03:32:12.414Z,0.80
2018-08-16T03:35:16.342Z,1.20
2018-08-16T03:38:20.411Z,1.27
2018-08-16T03:44:46.739Z,1.47
2018-08-16T03:47:50.982Z,1.50
2018-08-16T03:50:55.208Z,1.23
2018-08-16T03:53:59.525Z,1.37
2018-08-16T03:57:03.662Z,1.37
2018-08-16T04:00:08.007Z,1.10
2018-08-16T04:03:12.451Z,1.30
2018-08-16T04:06:16.352Z,1.10
2018-08-16T04:09:20.247Z,1.30
2018-08-16T04:12:24.495Z,0.80
2018-08-16T04:15:28.462Z,1.07
2018-08-16T04:18:32.717Z,1.60
2018-08-16T04:21:36.644Z,0.87
2018-08-16T04:24:40.739Z,0.70
2018-08-16T04:27:44.981Z,1.23
2018-08-16T04:30:49.260Z,0.90
2018-08-16T04:33:53.161Z,1.13
2018-08-16T04:36:57.405Z,1.43
2018-08-16T04:40:01.627Z,1.33
2018-08-16T04:43:05.744Z,0.80
2018-08-16T04:46:09.876Z,1.30
2018-08-16T04:49:14.305Z,1.20
2018-08-16T04:52:18.232Z,1.23
2018-08-16T04:55:22.125Z,1.10
2018-08-16T04:58:26.042Z,1.30
2018-08-16T05:01:29.941Z,1.17
2018-08-16T05:04:33.863Z,1.47
2018-08-16T05:07:38.489Z,1.90
2018-08-16T05:10:42.402Z,1.70
2018-08-16T05:13:46.291Z,1.50
2018-08-16T05:16:50.424Z,1.27
2018-08-16T05:19:54.776Z,1.83
2018-08-16T05:22:58.677Z,1.73
2018-08-16T05:26:03.117Z,1.33
2018-08-16T05:29:07.009Z,2.60
2018-08-16T05:32:11.256Z,1.30
2018-08-16T05:35:15.155Z,1.30
2018-08-16T05:38:19.054Z,1.73
2018-08-16T05:41:23.300Z,1.40
2018-08-16T05:44:27.204Z,1.50
2018-08-16T05:47:31.117Z,1.57
2018-08-16T05:50:35.033Z,1.30
2018-08-16T05:53:39.163Z,1.23
2018-08-16T05:56:43.411Z,1.50
2018-08-16T05:59:47.317Z,1.37
2018-08-16T06:02:51.226Z,1.27
2018-08-16T06:05:55.971Z,1.60
2018-08-16T06:08:59.894Z,1.47
2018-08-16T06:12:04.181Z,1.70
2018-08-16T06:15:08.730Z,1.10
2018-08-16T06:18:12.633Z,1.20
2018-08-16T06:21:17.102Z,1.27
2018-08-16T06:24:21.055Z,1.83
2018-08-16T06:27:24.941Z,1.70
2018-08-16T06:30:29.404Z,1.40
2018-08-16T06:33:33.504Z,1.97
2018-08-16T06:36:37.942Z,1.77
2018-08-16T06:39:41.858Z,1.50
2018-08-16T06:42:46.644Z,1.57
2018-08-16T06:45:50.549Z,2.07
2018-08-16T06:48:54.786Z,1.77
2018-08-16T06:51:58.709Z,1.30
2018-08-16T06:55:03.589Z,2.30
2018-08-16T06:58:07.977Z,2.23
2018-08-16T07:01:12.075Z,2.00
2018-08-16T07:04:16.182Z,2.37
2018-08-16T07:07:20.325Z,2.27
2018-08-16T07:10:24.418Z,2.63
2018-08-16T07:13:28.888Z,1.67
2018-08-16T07:16:33.121Z,1.47
2018-08-16T07:19:37.042Z,2.13
2018-08-16T07:22:40.937Z,2.00
2018-08-16T07:25:44.844Z,2.10
2018-08-16T07:28:49.078Z,1.83
2018-08-16T07:31:52.960Z,1.90
2018-08-16T07:34:57.047Z,2.30
2018-08-16T07:38:00.957Z,2.20
2018-08-16T07:41:04.862Z,2.20
2018-08-16T07:44:09.052Z,2.50
2018-08-16T07:47:12.966Z,2.10
2018-08-16T07:50:16.873Z,2.13
2018-08-16T07:53:20.945Z,2.23
2018-08-16T07:56:25.433Z,1.93
2018-08-16T07:59:29.575Z,1.57
2018-08-16T08:02:33.491Z,2.07
2018-08-16T08:05:37.401Z,2.13
2018-08-16T08:08:41.494Z,1.87
2018-08-16T08:11:45.422Z,2.60
2018-08-16T08:14:49.345Z,2.90
2018-08-16T08:17:53.471Z,2.70
2018-08-16T08:20:57.709Z,2.07
2018-08-16T08:24:01.894Z,2.17
2018-08-16T08:27:06.505Z,2.33
2018-08-16T08:30:12.280Z,2.43
2018-08-16T08:33:16.188Z,2.17
2018-08-16T08:36:31.292Z,2.30
2018-08-16T08:39:35.543Z,2.17
2018-08-16T08:42:39.478Z,2.30
2018-08-16T08:45:43.695Z,2.53
2018-08-16T08:48:47.928Z,2.27
2018-08-16T08:51:52.805Z,2.30
2018-08-16T08:55:07.863Z,2.83
2018-08-16T08:58:23.090Z,2.13
2018-08-16T09:01:27.873Z,2.00
2018-08-16T09:04:32.297Z,2.10
2018-08-16T09:07:36.373Z,1.90
2018-08-16T09:10:52.427Z,1.70
2018-08-16T09:14:08.554Z,1.60
2018-08-16T09:17:12.668Z,1.63
2018-08-16T09:20:16.762Z,1.43
2018-08-16T09:23:20.841Z,1.70
2018-08-16T09:26:30.118Z,1.40
2018-08-16T09:30:42.754Z,1.40
2018-08-16T09:33:57.960Z,2.07
2018-08-16T09:37:01.878Z,1.70
2018-08-16T09:40:06.439Z,1.47
2018-08-16T09:43:10.338Z,1.67
2018-08-16T09:47:04.310Z,1.20
2018-08-16T09:50:08.222Z,1.73
2018-08-16T09:53:12.370Z,1.73
2018-08-16T09:56:16.269Z,1.47
2018-08-16T09:59:20.241Z,1.10
2018-08-16T10:02:24.500Z,1.20
2018-08-16T10:05:28.585Z,1.77
2018-08-16T10:08:32.519Z,1.20
2018-08-16T10:11:36.467Z,1.30
2018-08-16T10:14:40.403Z,1.33
2018-08-16T10:17:44.323Z,1.97
2018-08-16T10:20:48.259Z,1.77
2018-08-16T10:23:52.329Z,1.33
2018-08-16T10:26:56.302Z,1.47
2018-08-16T10:30:00.687Z,1.67
2018-08-16T10:33:04.793Z,1.17
2018-08-16T10:36:09.154Z,1.60
2018-08-16T10:39:17.254Z,1.10
2018-08-16T10:42:21.173Z,1.10
2018-08-16T10:45:25.585Z,1.60
2018-08-16T10:48:30.119Z,1.07
2018-08-16T10:51:34.253Z,1.70
2018-08-16T10:54:38.149Z,1.50
2018-08-16T10:57:42.084Z,1.00
2018-08-16T11:00:45.998Z,1.30
2018-08-16T11:03:49.914Z,1.27
2018-08-16T11:06:53.801Z,1.27
2018-08-16T11:09:57.966Z,1.03
2018-08-16T11:13:02.003Z,1.60
2018-08-16T11:16:05.925Z,1.10
2018-08-16T11:19:09.840Z,1.40
2018-08-16T11:22:13.738Z,0.90
2018-08-16T11:25:17.652Z,1.07
2018-08-16T11:28:21.533Z,1.17
2018-08-16T11:31:25.750Z,1.17
2018-08-16T11:34:29.982Z,1.20
2018-08-16T11:37:33.877Z,0.90
2018-08-16T11:40:38.033Z,1.30
2018-08-16T11:43:42.141Z,1.57
2018-08-16T11:46:46.050Z,1.20
2018-08-16T11:49:49.941Z,1.43
2018-08-16T11:52:54.183Z,1.20
2018-08-16T11:55:58.113Z,1.20
2018-08-16T11:59:02.006Z,1.37
2018-08-16T12:02:06.106Z,1.70
2018-08-16T12:05:10.218Z,1.67
2018-08-16T12:08:14.121Z,1.50
2018-08-16T12:11:18.082Z,1.00
2018-08-16T12:14:22.165Z,1.30
2018-08-16T12:17:26.592Z,1.60
2018-08-16T12:20:30.516Z,1.57
2018-08-16T12:23:34.596Z,1.30
2018-08-16T12:26:38.540Z,1.17
2018-08-16T12:29:42.451Z,1.20
2018-08-16T12:32:46.668Z,1.47
2018-08-16T12:35:50.766Z,1.40
2018-08-16T12:38:54.682Z,1.50
2018-08-16T12:41:58.574Z,1.70
2018-08-16T12:45:02.461Z,1.30
2018-08-16T12:48:06.442Z,1.63
2018-08-16T12:51:10.658Z,1.43
2018-08-16T12:54:14.573Z,1.20
2018-08-16T12:57:18.487Z,1.57
2018-08-16T13:00:22.389Z,1.33
2018-08-16T13:03:26.292Z,1.77
2018-08-16T13:06:30.187Z,1.07
2018-08-16T13:09:34.083Z,1.60
2018-08-16T13:12:38.551Z,1.40
2018-08-16T13:15:42.652Z,1.43
2018-08-16T13:18:46.556Z,1.40
2018-08-16T13:21:50.802Z,1.53
2018-08-16T13:24:55.041Z,1.40
2018-08-16T13:27:58.943Z,1.27
2018-08-16T13:31:02.993Z,1.60
2018-08-16T13:34:06.909Z,1.40
2018-08-16T13:37:11.398Z,1.93
2018-08-16T13:40:15.449Z,1.13
2018-08-16T13:43:19.332Z,1.50
2018-08-16T13:46:23.236Z,1.57
2018-08-16T13:49:27.144Z,1.17
2018-08-16T13:52:31.389Z,1.63
2018-08-16T13:55:35.463Z,1.67
2018-08-16T13:58:39.578Z,1.23
2018-08-16T14:01:43.857Z,1.43
2018-08-16T14:04:47.914Z,1.47
2018-08-16T14:07:52.033Z,1.23
2018-08-16T14:10:55.937Z,1.17
2018-08-16T14:13:59.839Z,1.70
2018-08-16T14:17:03.769Z,1.30
2018-08-16T14:20:08.607Z,1.70
2018-08-16T14:23:12.706Z,1.60
2018-08-16T14:26:16.968Z,1.20
2018-08-16T14:29:20.852Z,1.40
2018-08-16T14:32:24.834Z,1.43
2018-08-16T14:35:28.881Z,1.60
2018-08-16T14:38:33.000Z,1.60
2018-08-16T14:41:37.127Z,1.17
2018-08-16T14:44:41.073Z,1.30
2018-08-16T14:47:45.322Z,1.60
2018-08-16T14:50:49.226Z,1.30
2018-08-16T14:53:53.257Z,1.53
2018-08-16T14:56:57.235Z,1.73
2018-08-16T15:00:01.319Z,1.60
2018-08-16T15:03:05.430Z,1.50
2018-08-16T15:06:09.321Z,1.77
2018-08-16T15:09:13.265Z,1.40
2018-08-16T15:12:17.196Z,1.50
2018-08-16T15:15:21.208Z,1.60
2018-08-16T15:18:26.098Z,1.30
2018-08-16T15:21:29.969Z,1.60
2018-08-16T15:24:33.961Z,1.23
2018-08-16T15:27:38.234Z,1.20
2018-08-16T15:30:42.301Z,1.17
2018-08-16T15:33:46.186Z,1.50
2018-08-16T15:36:50.075Z,1.40
2018-08-16T15:39:54.166Z,1.50
2018-08-16T15:42:58.062Z,0.93
2018-08-16T15:46:01.957Z,1.30
2018-08-16T15:49:06.270Z,1.20
2018-08-16T15:52:10.157Z,1.60
2018-08-16T15:55:14.053Z,1.50
2018-08-16T15:58:18.489Z,1.40
2018-08-16T16:01:22.389Z,1.40
2018-08-16T16:04:26.283Z,1.60
2018-08-16T16:07:30.194Z,1.40
2018-08-16T16:10:35.027Z,1.40
2018-08-16T16:13:40.662Z,1.40
2018-08-16T16:16:44.549Z,1.10
2018-08-16T16:19:48.473Z,1.27
2018-08-16T16:22:52.362Z,1.37
2018-08-16T16:25:56.266Z,1.43
2018-08-16T16:29:00.164Z,1.43
2018-08-16T16:32:04.057Z,1.37
2018-08-16T16:35:08.041Z,1.10
2018-08-16T16:38:11.933Z,1.30
2018-08-16T16:41:16.035Z,1.03
2018-08-16T16:44:19.945Z,1.03
2018-08-16T16:47:24.174Z,1.43
2018-08-16T16:50:28.089Z,1.50
2018-08-16T16:53:32.334Z,1.57
2018-08-16T16:56:36.544Z,1.20
2018-08-16T16:59:40.785Z,1.63
2018-08-16T17:02:44.697Z,1.37
2018-08-16T17:05:48.589Z,1.50
2018-08-16T17:08:52.491Z,1.50
2018-08-16T17:11:56.710Z,1.30
2018-08-16T17:15:00.633Z,1.37
2018-08-16T17:18:05.122Z,2.07
2018-08-16T17:21:09.105Z,1.00
2018-08-16T17:24:13.346Z,0.90
2018-08-16T17:27:17.257Z,1.73
2018-08-16T17:30:21.170Z,1.30
2018-08-16T17:33:25.089Z,1.23
2018-08-16T17:36:29.008Z,1.30
2018-08-16T17:39:33.097Z,1.17
2018-08-16T17:42:36.989Z,1.17
2018-08-16T17:45:40.888Z,1.80
2018-08-16T17:48:45.113Z,1.23
2018-08-16T17:51:49.017Z,1.70
2018-08-16T17:54:52.966Z,1.70
2018-08-16T17:57:56.876Z,1.27
2018-08-16T18:01:00.838Z,1.67
2018-08-16T18:04:04.723Z,1.47
2018-08-16T18:07:09.188Z,1.53
2018-08-16T18:10:13.139Z,1.27
2018-08-16T18:13:17.072Z,1.43
2018-08-16T18:16:23.539Z,1.40
2018-08-16T18:19:27.645Z,1.70
2018-08-16T18:22:31.878Z,1.40
2018-08-16T18:25:35.933Z,1.90
2018-08-16T18:28:39.827Z,1.90
2018-08-16T18:31:43.717Z,1.60
2018-08-16T18:34:47.959Z,1.83
2018-08-16T18:37:52.057Z,1.73
2018-08-16T18:40:56.289Z,2.33
2018-08-16T18:44:00.534Z,2.07
2018-08-16T18:47:04.457Z,1.80
2018-08-16T18:50:08.350Z,1.90
2018-08-16T18:53:12.253Z,2.00
2018-08-16T18:56:16.695Z,2.00
2018-08-16T18:59:20.905Z,1.63
2018-08-16T19:02:24.976Z,2.30
2018-08-16T19:05:28.928Z,1.90
2018-08-16T19:08:33.321Z,2.27
2018-08-16T19:11:37.225Z,2.10
2018-08-16T19:14:41.480Z,2.30
2018-08-16T19:17:45.380Z,1.87
2018-08-16T19:20:49.801Z,2.03
2018-08-16T19:23:53.909Z,2.13
2018-08-16T19:26:57.806Z,2.10
2018-08-16T19:30:01.779Z,2.37
2018-08-16T19:33:05.826Z,2.83
2018-08-16T19:36:09.799Z,2.10
2018-08-16T19:39:13.833Z,2.40
2018-08-16T19:42:18.062Z,1.83
2018-08-16T19:45:21.974Z,2.90
2018-08-16T19:48:26.169Z,2.70
2018-08-16T19:51:31.108Z,1.83
2018-08-16T19:54:35.243Z,2.70
2018-08-16T19:57:39.483Z,3.20
2018-08-16T20:00:43.622Z,3.00
2018-08-16T20:03:47.850Z,2.80
2018-08-16T20:06:51.981Z,2.93
2018-08-16T20:09:59.866Z,2.40
2018-08-16T20:13:03.982Z,2.07
2018-08-16T20:16:08.039Z,2.73
2018-08-16T20:19:12.152Z,2.47
2018-08-16T20:22:18.789Z,2.60
2018-08-16T20:25:22.685Z,2.50
2018-08-16T20:28:26.661Z,2.43
2018-08-16T20:31:30.697Z,2.90
2018-08-16T20:34:34.845Z,2.47
2018-08-16T20:37:38.789Z,2.03
2018-08-16T20:40:43.009Z,2.40
2018-08-16T20:43:47.157Z,1.90
2018-08-16T20:46:51.261Z,2.07
2018-08-16T20:49:55.153Z,1.73
2018-08-16T20:52:59.274Z,2.40
2018-08-16T20:56:03.173Z,3.10
2018-08-16T20:59:07.712Z,2.60
2018-08-16T21:02:11.597Z,2.30
2018-08-16T21:05:15.669Z,2.07
2018-08-16T21:08:19.686Z,2.37
2018-08-16T21:11:23.606Z,1.90
2018-08-16T21:14:27.521Z,2.27
2018-08-16T21:17:31.451Z,1.50
2018-08-16T21:20:35.341Z,2.20
2018-08-16T21:23:39.229Z,1.93
2018-08-16T21:26:43.132Z,2.17
2018-08-16T21:29:47.029Z,1.87
2018-08-16T21:32:50.908Z,1.63
2018-08-16T21:35:55.129Z,2.13
2018-08-16T21:38:59.026Z,2.23
2018-08-16T21:42:02.924Z,2.80
2018-08-16T21:45:06.816Z,2.03
2018-08-16T21:48:10.739Z,1.90
2018-08-16T21:51:14.837Z,1.90
2018-08-16T21:54:18.725Z,1.90
2018-08-16T21:57:22.623Z,2.60
2018-08-16T22:00:44.949Z,1.37
2018-08-16T22:03:48.839Z,2.00
2018-08-16T22:07:04.487Z,1.23
2018-08-16T22:10:08.056Z,1.63
2018-08-16T22:13:11.944Z,2.07
2018-08-16T22:16:15.869Z,1.93
2018-08-16T22:19:20.288Z,1.83
2018-08-16T22:22:24.198Z,1.30
2018-08-16T22:25:28.329Z,1.60
2018-08-16T22:28:32.451Z,1.40
2018-08-16T22:31:36.686Z,2.07
2018-08-16T22:34:40.602Z,2.10
2018-08-16T22:37:44.926Z,1.50
2018-08-16T22:40:48.821Z,1.50
2018-08-16T22:43:52.729Z,1.20
2018-08-16T22:46:56.625Z,1.83
2018-08-16T22:50:00.530Z,1.90
2018-08-16T22:53:04.491Z,2.10
2018-08-16T22:56:08.560Z,1.70
2018-08-16T22:59:12.461Z,2.07
2018-08-16T23:02:16.359Z,1.33
2018-08-16T23:05:20.264Z,1.63
2018-08-16T23:08:25.226Z,1.47
2018-08-16T23:11:29.462Z,1.90
2018-08-16T23:14:33.368Z,1.47
2018-08-16T23:17:37.905Z,2.27
2018-08-16T23:20:42.221Z,1.53
2018-08-16T23:23:46.109Z,1.47
2018-08-16T23:26:50.078Z,1.53
2018-08-16T23:29:53.949Z,1.23
2018-08-16T23:32:57.849Z,1.90
2018-08-16T23:36:01.744Z,2.03
2018-08-16T23:39:06.071Z,1.77
2018-08-16T23:42:10.280Z,1.37
2018-08-16T23:45:14.176Z,1.87
2018-08-16T23:48:24.325Z,0.90
2018-08-16T23:51:28.212Z,2.10
2018-08-16T23:54:32.195Z,2.07
2018-08-16T23:57:36.316Z,1.93
